createdAt,value
2024-04-24T00:01:18.184Z,63.08
2024-04-24T00:06:23.140Z,53.62
2024-04-24T00:11:27.310Z,55.16
2024-04-24T00:16:30.103Z,56.55
2024-04-24T00:21:32.897Z,57.33
2024-04-24T00:26:35.571Z,58.50
2024-04-24T00:31:38.257Z,60.07
2024-04-24T00:36:40.894Z,60.62
2024-04-24T00:41:43.536Z,61.07
2024-04-24T00:46:47.564Z,61.57
2024-04-24T00:51:50.329Z,67.55
2024-04-24T00:56:53.072Z,62.72
2024-04-24T01:01:56.360Z,53.69
2024-04-24T01:06:59.060Z,54.96
2024-04-24T01:12:01.773Z,57.16
2024-04-24T01:17:06.875Z,58.67
2024-04-24T01:22:15.539Z,59.48
2024-04-24T01:27:18.219Z,60.71
2024-04-24T01:32:20.990Z,61.04
2024-04-24T01:37:23.786Z,67.67
2024-04-24T01:42:26.449Z,63.93
2024-04-24T01:47:29.132Z,54.73
2024-04-24T01:52:31.729Z,55.23
2024-04-24T01:57:34.339Z,56.63
2024-04-24T02:02:37.079Z,57.73
2024-04-24T02:07:39.754Z,59.37
2024-04-24T02:12:42.436Z,60.51
2024-04-24T02:17:45.183Z,61.85
2024-04-24T02:22:47.913Z,67.94
2024-04-24T02:27:50.541Z,61.93
2024-04-24T02:32:53.815Z,53.81
2024-04-24T02:37:56.674Z,54.30
2024-04-24T02:42:59.383Z,55.19
2024-04-24T02:48:02.134Z,56.03
2024-04-24T02:53:04.873Z,57.05
2024-04-24T02:58:07.683Z,57.94
2024-04-24T03:03:10.506Z,59.18
2024-04-24T03:08:13.387Z,61.15
2024-04-24T03:13:16.160Z,62.86
2024-04-24T03:18:18.980Z,64.16
2024-04-24T03:23:21.753Z,53.08
2024-04-24T03:28:24.487Z,53.27
2024-04-24T03:33:27.248Z,54.55
2024-04-24T03:38:30.254Z,56.02
2024-04-24T03:43:32.825Z,57.03
2024-04-24T03:48:37.477Z,58.19
2024-04-24T03:53:41.377Z,60.21
2024-04-24T03:58:46.361Z,60.87
2024-04-24T04:03:53.676Z,60.28
2024-04-24T04:08:56.618Z,61.13
2024-04-24T04:13:59.286Z,61.61
2024-04-24T04:19:01.932Z,66.45
2024-04-24T04:24:04.641Z,58.46
2024-04-24T04:29:08.335Z,52.16
2024-04-24T04:34:11.346Z,54.48
2024-04-24T04:39:14.463Z,56.03
2024-04-24T04:44:17.189Z,57.68
2024-04-24T04:49:20.467Z,58.74
2024-04-24T04:54:23.083Z,59.93
2024-04-24T04:59:26.828Z,60.14
2024-04-24T05:04:29.541Z,64.55
2024-04-24T05:09:33.488Z,57.42
2024-04-24T05:14:36.271Z,54.56
2024-04-24T05:19:38.886Z,55.29
2024-04-24T05:24:41.545Z,57.25
2024-04-24T05:29:44.227Z,58.70
2024-04-24T05:34:46.868Z,59.66
2024-04-24T05:39:49.652Z,58.70
2024-04-24T05:44:52.272Z,60.85
2024-04-24T05:49:56.547Z,61.34
2024-04-24T05:54:59.352Z,61.71
2024-04-24T06:00:02.138Z,61.29
2024-04-24T06:05:05.469Z,61.83
2024-04-24T06:10:08.859Z,61.97
2024-04-24T06:15:18.647Z,63.20
2024-04-24T06:20:23.207Z,55.48
2024-04-24T06:25:25.873Z,54.79
2024-04-24T06:30:28.655Z,57.35
2024-04-24T06:35:37.239Z,58.62
2024-04-24T06:40:43.383Z,58.50
2024-04-24T06:45:46.716Z,57.52
2024-04-24T06:50:50.205Z,58.98
2024-04-24T06:55:53.580Z,60.01
2024-04-24T07:00:57.545Z,59.70
2024-04-24T07:06:00.440Z,59.47
2024-04-24T07:11:03.394Z,57.91
2024-04-24T07:16:06.528Z,58.24
2024-04-24T07:21:09.395Z,59.41
2024-04-24T07:26:12.073Z,60.13
2024-04-24T07:31:15.278Z,60.34
2024-04-24T07:36:18.745Z,58.47
2024-04-24T07:41:21.631Z,59.65
2024-04-24T07:46:30.917Z,58.40
2024-04-24T07:51:33.608Z,59.06
2024-04-24T07:56:36.358Z,57.11
2024-04-24T08:01:39.469Z,57.47
2024-04-24T08:06:42.525Z,55.79
2024-04-24T08:11:45.458Z,54.92
2024-04-24T08:16:49.934Z,55.51
2024-04-24T08:21:56.887Z,55.13
2024-04-24T08:26:59.619Z,54.05
2024-04-24T08:32:03.049Z,53.60
2024-04-24T08:37:05.852Z,54.16
2024-04-24T08:42:09.322Z,54.45
2024-04-24T08:47:14.228Z,54.13
2024-04-24T08:52:22.064Z,53.15
2024-04-24T08:57:27.704Z,52.14
2024-04-24T09:02:33.993Z,51.97
2024-04-24T09:07:39.972Z,52.53
2024-04-24T09:12:45.828Z,52.73
2024-04-24T09:17:50.839Z,51.40
2024-04-24T09:22:54.470Z,50.89
2024-04-24T09:27:57.736Z,51.44
2024-04-24T09:33:01.079Z,51.51
2024-04-24T09:38:06.903Z,51.19
2024-04-24T09:43:09.973Z,50.67
2024-04-24T09:48:24.567Z,51.13
2024-04-24T09:53:30.256Z,49.77
2024-04-24T09:58:35.951Z,48.95
2024-04-24T10:03:40.900Z,48.41
2024-04-24T10:08:45.027Z,47.48
2024-04-24T10:13:51.464Z,48.41
2024-04-24T10:18:56.467Z,47.37
2024-04-24T10:24:03.171Z,47.10
2024-04-24T10:29:13.120Z,48.51
2024-04-24T10:34:16.933Z,47.67
2024-04-24T10:39:20.661Z,45.89
2024-04-24T10:44:24.264Z,44.56
2024-04-24T10:49:30.442Z,44.65
2024-04-24T10:54:33.600Z,43.87
2024-04-24T10:59:44.268Z,44.81
2024-04-24T11:04:51.789Z,43.51
2024-04-24T11:09:55.253Z,43.68
2024-04-24T11:15:00.232Z,42.49
2024-04-24T11:20:04.335Z,42.97
2024-04-24T11:25:11.243Z,42.81
2024-04-24T11:30:18.971Z,43.86
2024-04-24T11:35:26.518Z,43.91
2024-04-24T11:40:38.223Z,44.17
2024-04-24T11:45:43.912Z,44.97
2024-04-24T11:50:55.178Z,44.61
2024-04-24T11:55:59.621Z,44.99
2024-04-24T12:01:03.211Z,46.34
2024-04-24T12:06:06.299Z,46.28
2024-04-24T12:11:09.849Z,46.85
2024-04-24T12:16:12.826Z,47.51
2024-04-24T12:21:17.131Z,47.49
2024-04-24T12:26:21.157Z,47.80
2024-04-24T12:31:25.103Z,47.76
2024-04-24T12:36:28.672Z,48.30
2024-04-24T12:41:31.782Z,48.94
2024-04-24T12:46:37.245Z,49.18
2024-04-24T12:51:41.533Z,49.12
2024-04-24T12:56:44.427Z,49.36
2024-04-24T13:01:47.049Z,49.03
2024-04-24T13:06:49.774Z,48.70
2024-04-24T13:11:52.648Z,48.62
2024-04-24T13:17:02.584Z,48.99
2024-04-24T13:22:06.631Z,48.85
2024-04-24T13:27:09.883Z,48.03
2024-04-24T13:32:12.648Z,48.13
2024-04-24T13:37:16.577Z,48.26
2024-04-24T13:42:19.536Z,48.52
2024-04-24T13:47:22.920Z,48.00
2024-04-24T13:52:25.686Z,47.69
2024-04-24T13:57:29.612Z,48.15
2024-04-24T14:02:35.266Z,48.49
2024-04-24T14:07:39.486Z,49.01
2024-04-24T14:12:43.055Z,48.95
2024-04-24T14:17:46.053Z,49.13
2024-04-24T14:22:49.518Z,49.68
2024-04-24T14:27:52.295Z,49.99
2024-04-24T14:32:55.417Z,50.59
2024-04-24T14:37:59.027Z,51.18
2024-04-24T14:43:01.704Z,51.84
2024-04-24T14:48:06.329Z,52.66
2024-04-24T14:53:09.039Z,53.26
2024-04-24T14:58:13.177Z,53.58
2024-04-24T15:03:18.432Z,54.06
2024-04-24T15:08:25.243Z,54.39
2024-04-24T15:13:28.412Z,55.01
2024-04-24T15:18:35.584Z,55.47
2024-04-24T15:23:38.360Z,55.37
2024-04-24T15:28:41.691Z,56.03
2024-04-24T15:33:44.580Z,56.27
2024-04-24T15:38:48.939Z,56.80
2024-04-24T15:43:51.891Z,57.52
2024-04-24T15:48:59.735Z,57.73
2024-04-24T15:54:03.206Z,58.68
2024-04-24T15:59:06.453Z,59.16
2024-04-24T16:04:09.786Z,59.62
2024-04-24T16:09:12.626Z,60.26
2024-04-24T16:14:17.006Z,60.47
2024-04-24T16:19:21.653Z,61.22
2024-04-24T16:24:24.408Z,61.82
2024-04-24T16:29:27.728Z,58.42
2024-04-24T16:34:31.617Z,58.31
2024-04-24T16:39:35.034Z,59.66
2024-04-24T16:44:37.694Z,60.83
2024-04-24T16:49:42.337Z,61.19
2024-04-24T16:54:46.836Z,62.21
2024-04-24T16:59:49.561Z,60.17
2024-04-24T17:04:53.549Z,57.20
2024-04-24T17:10:06.703Z,59.09
2024-04-24T17:15:13.627Z,60.72
2024-04-24T17:20:17.554Z,61.24
2024-04-24T17:25:20.707Z,61.99
2024-04-24T17:30:23.320Z,59.87
2024-04-24T17:35:26.609Z,58.17
2024-04-24T17:40:32.485Z,60.57
2024-04-24T17:45:35.171Z,62.21
2024-04-24T17:50:38.035Z,60.52
2024-04-24T17:55:40.869Z,58.10
2024-04-24T18:00:44.928Z,60.26
2024-04-24T18:05:48.163Z,62.30
2024-04-24T18:10:50.920Z,59.02
2024-04-24T18:15:54.213Z,60.26
2024-04-24T18:20:57.015Z,64.16
2024-04-24T18:25:59.946Z,58.60
2024-04-24T18:31:03.174Z,58.12
2024-04-24T18:36:07.339Z,61.63
2024-04-24T18:41:12.455Z,62.36
2024-04-24T18:46:16.763Z,56.93
2024-04-24T18:51:21.430Z,59.57
2024-04-24T18:56:24.707Z,62.64
2024-04-24T19:01:30.474Z,61.29
2024-04-24T19:06:35.989Z,54.91
2024-04-24T19:11:40.347Z,57.63
2024-04-24T19:16:43.302Z,61.27
2024-04-24T19:21:46.052Z,61.86
2024-04-24T19:26:48.952Z,58.23
2024-04-24T19:31:51.746Z,60.52
2024-04-24T19:36:54.781Z,64.23
2024-04-24T19:41:57.448Z,59.82
2024-04-24T19:47:00.290Z,55.66
2024-04-24T19:52:04.532Z,57.66
2024-04-24T19:57:07.281Z,58.65
2024-04-24T20:02:10.488Z,59.63
2024-04-24T20:07:15.757Z,62.81
2024-04-24T20:12:18.887Z,66.20
2024-04-24T20:17:22.663Z,57.92
2024-04-24T20:22:25.820Z,55.90
2024-04-24T20:27:28.651Z,58.97
2024-04-24T20:32:32.174Z,61.17
2024-04-24T20:37:34.955Z,64.47
2024-04-24T20:42:38.127Z,61.89
2024-04-24T20:47:40.915Z,55.53
2024-04-24T20:52:45.499Z,56.73
2024-04-24T20:57:48.193Z,59.20
2024-04-24T21:02:50.924Z,63.48
2024-04-24T21:07:55.704Z,64.75
2024-04-24T21:13:01.134Z,57.50
2024-04-24T21:18:04.353Z,56.26
2024-04-24T21:23:09.569Z,59.12
2024-04-24T21:28:14.482Z,60.72
2024-04-24T21:33:19.421Z,67.03
2024-04-24T21:38:22.158Z,62.90
2024-04-24T21:43:27.198Z,56.15
2024-04-24T21:48:29.881Z,57.37
2024-04-24T21:53:33.820Z,58.81
2024-04-24T21:58:36.891Z,60.65
2024-04-24T22:03:39.596Z,65.41
2024-04-24T22:08:42.335Z,64.67
2024-04-24T22:13:45.124Z,59.57
2024-04-24T22:18:48.245Z,56.34
2024-04-24T22:23:51.079Z,58.46
2024-04-24T22:28:53.699Z,60.04
2024-04-24T22:33:56.327Z,66.96
2024-04-24T22:38:58.952Z,65.38
2024-04-24T22:44:01.685Z,59.56
2024-04-24T22:49:08.515Z,57.67
2024-04-24T22:54:11.190Z,60.05
2024-04-24T22:59:17.669Z,66.91
2024-04-24T23:04:21.659Z,63.95
2024-04-24T23:09:24.368Z,58.60
2024-04-24T23:14:27.710Z,58.26
2024-04-24T23:19:30.333Z,60.53
2024-04-24T23:24:32.955Z,66.62
2024-04-24T23:29:35.706Z,64.93
2024-04-24T23:34:38.340Z,60.37
2024-04-24T23:39:41.376Z,56.73
2024-04-24T23:44:44.082Z,58.11
2024-04-24T23:49:46.731Z,64.33
2024-04-24T23:54:49.375Z,64.21
2024-04-24T23:59:52.676Z,60.38
